sensor_id;sensor_type;location;lat;lon;timestamp;temperature;humidity
19232;DHT22;9750;48.730;10.294;2023-04-05T00:01:42;2.10;83.80
19232;DHT22;9750;48.730;10.294;2023-04-05T00:04:15;2.10;84.80
19232;DHT22;9750;48.730;10.294;2023-04-05T00:06:46;2.10;84.50
19232;DHT22;9750;48.730;10.294;2023-04-05T00:16:31;2.00;84.30
19232;DHT22;9750;48.730;10.294;2023-04-05T00:19:00;2.10;84.20
19232;DHT22;9750;48.730;10.294;2023-04-05T00:21:37;2.10;84.40
19232;DHT22;9750;48.730;10.294;2023-04-05T00:24:12;2.10;84.50
19232;DHT22;9750;48.730;10.294;2023-04-05T00:26:57;2.00;84.20
19232;DHT22;9750;48.730;10.294;2023-04-05T00:29:37;2.00;84.40
19232;DHT22;9750;48.730;10.294;2023-04-05T00:32:14;2.10;84.70
19232;DHT22;9750;48.730;10.294;2023-04-05T00:34:57;2.00;84.30
19232;DHT22;9750;48.730;10.294;2023-04-05T00:37:57;2.00;84.80
19232;DHT22;9750;48.730;10.294;2023-04-05T00:40:27;2.00;84.50
19232;DHT22;9750;48.730;10.294;2023-04-05T00:42:59;2.00;85.00
19232;DHT22;9750;48.730;10.294;2023-04-05T00:45:31;2.00;85.20
19232;DHT22;9750;48.730;10.294;2023-04-05T00:48:04;2.00;85.20
19232;DHT22;9750;48.730;10.294;2023-04-05T00:50:32;1.90;85.30
19232;DHT22;9750;48.730;10.294;2023-04-05T00:53:00;1.90;86.00
19232;DHT22;9750;48.730;10.294;2023-04-05T00:55:27;1.90;85.80
19232;DHT22;9750;48.730;10.294;2023-04-05T00:57:55;1.90;85.60
19232;DHT22;9750;48.730;10.294;2023-04-05T01:00:22;1.90;86.00
19232;DHT22;9750;48.730;10.294;2023-04-05T01:02:54;1.80;86.10
19232;DHT22;9750;48.730;10.294;2023-04-05T01:05:33;1.80;86.20
19232;DHT22;9750;48.730;10.294;2023-04-05T01:08:08;1.70;86.70
19232;DHT22;9750;48.730;10.294;2023-04-05T01:10:39;1.70;87.30
19232;DHT22;9750;48.730;10.294;2023-04-05T01:13:08;1.70;87.10
19232;DHT22;9750;48.730;10.294;2023-04-05T01:15:36;1.70;87.20
19232;DHT22;9750;48.730;10.294;2023-04-05T01:21:45;1.60;87.80
19232;DHT22;9750;48.730;10.294;2023-04-05T01:24:37;1.60;87.20
19232;DHT22;9750;48.730;10.294;2023-04-05T01:27:18;1.60;87.70
19232;DHT22;9750;48.730;10.294;2023-04-05T01:30:03;1.60;87.50
19232;DHT22;9750;48.730;10.294;2023-04-05T01:32:58;1.60;87.50
19232;DHT22;9750;48.730;10.294;2023-04-05T01:35:36;1.50;87.50
19232;DHT22;9750;48.730;10.294;2023-04-05T01:39:02;1.50;87.80
19232;DHT22;9750;48.730;10.294;2023-04-05T01:41:21;1.50;87.00
19232;DHT22;9750;48.730;10.294;2023-04-05T01:43:49;1.50;87.30
19232;DHT22;9750;48.730;10.294;2023-04-05T01:46:18;1.50;87.10
19232;DHT22;9750;48.730;10.294;2023-04-05T01:48:48;1.50;86.50
19232;DHT22;9750;48.730;10.294;2023-04-05T01:51:15;1.50;85.90
19232;DHT22;9750;48.730;10.294;2023-04-05T01:53:42;1.50;85.60
19232;DHT22;9750;48.730;10.294;2023-04-05T01:56:10;1.50;85.10
19232;DHT22;9750;48.730;10.294;2023-04-05T01:58:38;1.50;84.60
19232;DHT22;9750;48.730;10.294;2023-04-05T02:01:05;1.50;85.30
19232;DHT22;9750;48.730;10.294;2023-04-05T02:03:34;1.50;85.50
19232;DHT22;9750;48.730;10.294;2023-04-05T02:06:03;1.50;85.30
19232;DHT22;9750;48.730;10.294;2023-04-05T02:08:40;1.50;85.30
19232;DHT22;9750;48.730;10.294;2023-04-05T02:11:10;1.50;84.90
19232;DHT22;9750;48.730;10.294;2023-04-05T02:13:37;1.40;85.50
19232;DHT22;9750;48.730;10.294;2023-04-05T02:16:05;1.40;85.80
19232;DHT22;9750;48.730;10.294;2023-04-05T02:18:33;1.40;85.80
19232;DHT22;9750;48.730;10.294;2023-04-05T02:21:04;1.30;85.90
19232;DHT22;9750;48.730;10.294;2023-04-05T02:23:33;1.30;85.70
19232;DHT22;9750;48.730;10.294;2023-04-05T02:26:00;1.30;85.50
19232;DHT22;9750;48.730;10.294;2023-04-05T02:28:28;1.30;86.10
19232;DHT22;9750;48.730;10.294;2023-04-05T02:30:55;1.30;86.10
19232;DHT22;9750;48.730;10.294;2023-04-05T02:33:22;1.20;86.00
19232;DHT22;9750;48.730;10.294;2023-04-05T02:35:52;1.20;86.00
19232;DHT22;9750;48.730;10.294;2023-04-05T02:38:19;1.20;86.20
19232;DHT22;9750;48.730;10.294;2023-04-05T02:40:47;1.20;86.70
19232;DHT22;9750;48.730;10.294;2023-04-05T02:43:15;1.20;86.90
19232;DHT22;9750;48.730;10.294;2023-04-05T02:45:42;1.10;86.90
19232;DHT22;9750;48.730;10.294;2023-04-05T02:48:10;1.10;86.90
19232;DHT22;9750;48.730;10.294;2023-04-05T02:50:38;1.10;87.70
19232;DHT22;9750;48.730;10.294;2023-04-05T02:53:06;1.10;87.80
19232;DHT22;9750;48.730;10.294;2023-04-05T02:55:34;1.00;87.80
19232;DHT22;9750;48.730;10.294;2023-04-05T02:58:01;1.00;87.40
19232;DHT22;9750;48.730;10.294;2023-04-05T03:00:28;1.00;87.50
19232;DHT22;9750;48.730;10.294;2023-04-05T03:02:56;1.00;87.70
19232;DHT22;9750;48.730;10.294;2023-04-05T03:05:24;0.90;87.20
19232;DHT22;9750;48.730;10.294;2023-04-05T03:07:51;0.90;87.00
19232;DHT22;9750;48.730;10.294;2023-04-05T03:10:21;1.00;86.00
19232;DHT22;9750;48.730;10.294;2023-04-05T03:12:50;1.00;85.80
19232;DHT22;9750;48.730;10.294;2023-04-05T03:15:20;1.00;86.00
19232;DHT22;9750;48.730;10.294;2023-04-05T03:17:51;0.90;87.00
19232;DHT22;9750;48.730;10.294;2023-04-05T03:20:18;0.90;86.90
19232;DHT22;9750;48.730;10.294;2023-04-05T03:22:50;0.90;87.40
19232;DHT22;9750;48.730;10.294;2023-04-05T03:25:22;0.80;87.40
19232;DHT22;9750;48.730;10.294;2023-04-05T03:27:50;0.80;87.10
19232;DHT22;9750;48.730;10.294;2023-04-05T03:30:17;0.80;88.00
19232;DHT22;9750;48.730;10.294;2023-04-05T03:32:45;0.80;88.30
19232;DHT22;9750;48.730;10.294;2023-04-05T03:35:12;0.80;87.50
19232;DHT22;9750;48.730;10.294;2023-04-05T03:37:41;0.80;87.60
19232;DHT22;9750;48.730;10.294;2023-04-05T03:40:09;0.70;86.80
19232;DHT22;9750;48.730;10.294;2023-04-05T03:42:39;0.80;86.90
19232;DHT22;9750;48.730;10.294;2023-04-05T03:45:07;0.70;86.90
19232;DHT22;9750;48.730;10.294;2023-04-05T03:47:34;0.70;86.70
19232;DHT22;9750;48.730;10.294;2023-04-05T03:50:04;0.70;87.30
19232;DHT22;9750;48.730;10.294;2023-04-05T03:52:32;0.60;87.70
19232;DHT22;9750;48.730;10.294;2023-04-05T03:55:00;0.60;87.60
19232;DHT22;9750;48.730;10.294;2023-04-05T04:00:50;0.50;88.10
19232;DHT22;9750;48.730;10.294;2023-04-05T04:03:18;0.60;88.00
19232;DHT22;9750;48.730;10.294;2023-04-05T04:05:45;0.50;88.20
19232;DHT22;9750;48.730;10.294;2023-04-05T04:08:13;0.60;87.80
19232;DHT22;9750;48.730;10.294;2023-04-05T04:10:40;0.50;87.70
19232;DHT22;9750;48.730;10.294;2023-04-05T04:13:09;0.50;86.80
19232;DHT22;9750;48.730;10.294;2023-04-05T04:15:36;0.50;87.00
19232;DHT22;9750;48.730;10.294;2023-04-05T04:18:05;0.50;87.20
19232;DHT22;9750;48.730;10.294;2023-04-05T04:20:33;0.50;87.90
19232;DHT22;9750;48.730;10.294;2023-04-05T04:23:00;0.50;88.20
19232;DHT22;9750;48.730;10.294;2023-04-05T04:25:27;0.50;88.20
19232;DHT22;9750;48.730;10.294;2023-04-05T04:27:55;0.40;89.10
19232;DHT22;9750;48.730;10.294;2023-04-05T04:30:23;0.40;88.80
19232;DHT22;9750;48.730;10.294;2023-04-05T04:32:50;0.40;89.30
19232;DHT22;9750;48.730;10.294;2023-04-05T04:35:22;0.40;88.70
19232;DHT22;9750;48.730;10.294;2023-04-05T04:37:52;0.40;88.20
19232;DHT22;9750;48.730;10.294;2023-04-05T04:40:23;0.40;87.70
19232;DHT22;9750;48.730;10.294;2023-04-05T04:42:51;0.30;87.70
19232;DHT22;9750;48.730;10.294;2023-04-05T04:45:19;0.30;88.40
19232;DHT22;9750;48.730;10.294;2023-04-05T04:47:48;0.30;88.80
19232;DHT22;9750;48.730;10.294;2023-04-05T04:50:20;0.30;88.70
19232;DHT22;9750;48.730;10.294;2023-04-05T04:52:47;0.30;88.50
19232;DHT22;9750;48.730;10.294;2023-04-05T04:55:14;0.30;88.60
19232;DHT22;9750;48.730;10.294;2023-04-05T04:57:42;0.30;88.50
19232;DHT22;9750;48.730;10.294;2023-04-05T05:00:12;0.30;88.50
19232;DHT22;9750;48.730;10.294;2023-04-05T05:02:50;0.30;88.00
19232;DHT22;9750;48.730;10.294;2023-04-05T05:05:22;0.30;87.40
19232;DHT22;9750;48.730;10.294;2023-04-05T05:07:52;0.30;88.00
19232;DHT22;9750;48.730;10.294;2023-04-05T05:10:20;0.40;87.80
19232;DHT22;9750;48.730;10.294;2023-04-05T05:12:52;0.40;88.10
19232;DHT22;9750;48.730;10.294;2023-04-05T05:15:34;0.40;87.90
19232;DHT22;9750;48.730;10.294;2023-04-05T05:18:01;0.40;88.20
19232;DHT22;9750;48.730;10.294;2023-04-05T05:20:30;0.40;87.70
19232;DHT22;9750;48.730;10.294;2023-04-05T05:22:58;0.40;87.80
19232;DHT22;9750;48.730;10.294;2023-04-05T05:25:25;0.50;88.00
19232;DHT22;9750;48.730;10.294;2023-04-05T05:27:53;0.50;88.20
19232;DHT22;9750;48.730;10.294;2023-04-05T05:30:20;0.50;88.10
19232;DHT22;9750;48.730;10.294;2023-04-05T05:32:49;0.50;88.40
19232;DHT22;9750;48.730;10.294;2023-04-05T05:35:17;0.60;88.30
19232;DHT22;9750;48.730;10.294;2023-04-05T05:37:46;0.60;88.00
19232;DHT22;9750;48.730;10.294;2023-04-05T05:40:14;0.60;88.50
19232;DHT22;9750;48.730;10.294;2023-04-05T05:42:41;0.60;88.30
19232;DHT22;9750;48.730;10.294;2023-04-05T05:45:09;0.60;88.50
19232;DHT22;9750;48.730;10.294;2023-04-05T05:47:36;0.70;88.40
19232;DHT22;9750;48.730;10.294;2023-04-05T05:50:05;0.70;88.90
19232;DHT22;9750;48.730;10.294;2023-04-05T05:52:33;0.80;88.90
19232;DHT22;9750;48.730;10.294;2023-04-05T05:55:02;0.80;88.60
19232;DHT22;9750;48.730;10.294;2023-04-05T05:57:30;0.80;88.50
19232;DHT22;9750;48.730;10.294;2023-04-05T05:59:57;0.90;88.20
19232;DHT22;9750;48.730;10.294;2023-04-05T06:02:24;0.90;88.40
19232;DHT22;9750;48.730;10.294;2023-04-05T06:04:52;1.00;88.70
19232;DHT22;9750;48.730;10.294;2023-04-05T06:07:19;1.10;88.30
19232;DHT22;9750;48.730;10.294;2023-04-05T06:09:47;1.10;87.40
19232;DHT22;9750;48.730;10.294;2023-04-05T06:12:16;1.10;87.20
19232;DHT22;9750;48.730;10.294;2023-04-05T06:14:44;1.10;86.60
19232;DHT22;9750;48.730;10.294;2023-04-05T06:17:11;1.20;87.40
19232;DHT22;9750;48.730;10.294;2023-04-05T06:19:39;1.10;87.10
19232;DHT22;9750;48.730;10.294;2023-04-05T06:22:06;1.20;88.10
19232;DHT22;9750;48.730;10.294;2023-04-05T06:24:33;1.20;88.90
19232;DHT22;9750;48.730;10.294;2023-04-05T06:27:01;1.20;89.20
19232;DHT22;9750;48.730;10.294;2023-04-05T06:29:30;1.20;89.10
19232;DHT22;9750;48.730;10.294;2023-04-05T06:31:57;1.20;89.20
19232;DHT22;9750;48.730;10.294;2023-04-05T06:34:24;1.20;89.30
19232;DHT22;9750;48.730;10.294;2023-04-05T06:36:51;1.20;89.60
19232;DHT22;9750;48.730;10.294;2023-04-05T06:39:20;1.30;89.60
19232;DHT22;9750;48.730;10.294;2023-04-05T06:41:47;1.30;89.20
19232;DHT22;9750;48.730;10.294;2023-04-05T06:44:15;1.40;88.90
19232;DHT22;9750;48.730;10.294;2023-04-05T06:46:43;1.40;89.00
19232;DHT22;9750;48.730;10.294;2023-04-05T06:49:11;1.50;89.40
19232;DHT22;9750;48.730;10.294;2023-04-05T06:51:38;1.50;89.60
19232;DHT22;9750;48.730;10.294;2023-04-05T06:54:06;1.50;89.50
19232;DHT22;9750;48.730;10.294;2023-04-05T06:56:33;1.60;89.10
19232;DHT22;9750;48.730;10.294;2023-04-05T06:59:00;1.70;88.40
19232;DHT22;9750;48.730;10.294;2023-04-05T07:01:28;1.80;88.50
19232;DHT22;9750;48.730;10.294;2023-04-05T07:03:57;1.90;88.90
19232;DHT22;9750;48.730;10.294;2023-04-05T07:06:25;1.90;89.00
19232;DHT22;9750;48.730;10.294;2023-04-05T07:08:52;2.00;88.50
19232;DHT22;9750;48.730;10.294;2023-04-05T07:11:20;2.00;89.00
19232;DHT22;9750;48.730;10.294;2023-04-05T07:13:47;2.00;89.10
19232;DHT22;9750;48.730;10.294;2023-04-05T07:16:15;2.10;88.90
19232;DHT22;9750;48.730;10.294;2023-04-05T07:18:43;2.20;89.00
19232;DHT22;9750;48.730;10.294;2023-04-05T07:21:13;2.20;88.50
19232;DHT22;9750;48.730;10.294;2023-04-05T07:23:40;2.30;88.00
19232;DHT22;9750;48.730;10.294;2023-04-05T07:26:08;2.30;88.00
19232;DHT22;9750;48.730;10.294;2023-04-05T07:28:37;2.40;87.60
19232;DHT22;9750;48.730;10.294;2023-04-05T07:31:05;2.50;86.80
19232;DHT22;9750;48.730;10.294;2023-04-05T07:33:36;2.50;86.40
19232;DHT22;9750;48.730;10.294;2023-04-05T07:36:07;2.60;85.70
19232;DHT22;9750;48.730;10.294;2023-04-05T07:38:36;2.70;85.30
19232;DHT22;9750;48.730;10.294;2023-04-05T07:41:03;2.80;85.00
19232;DHT22;9750;48.730;10.294;2023-04-05T07:46:42;2.90;84.60
19232;DHT22;9750;48.730;10.294;2023-04-05T07:49:25;2.90;84.50
19232;DHT22;9750;48.730;10.294;2023-04-05T07:51:56;3.00;84.50
19232;DHT22;9750;48.730;10.294;2023-04-05T07:54:25;3.00;84.90
19232;DHT22;9750;48.730;10.294;2023-04-05T07:56:52;3.10;83.90
19232;DHT22;9750;48.730;10.294;2023-04-05T07:59:22;3.20;83.70
19232;DHT22;9750;48.730;10.294;2023-04-05T08:01:50;3.20;83.00
19232;DHT22;9750;48.730;10.294;2023-04-05T08:04:18;3.30;83.00
19232;DHT22;9750;48.730;10.294;2023-04-05T08:06:45;3.30;82.40
19232;DHT22;9750;48.730;10.294;2023-04-05T08:09:13;3.40;83.30
19232;DHT22;9750;48.730;10.294;2023-04-05T08:11:42;3.40;83.50
19232;DHT22;9750;48.730;10.294;2023-04-05T08:14:09;3.50;83.40
19232;DHT22;9750;48.730;10.294;2023-04-05T08:16:36;3.60;82.80
19232;DHT22;9750;48.730;10.294;2023-04-05T08:19:04;3.60;82.60
19232;DHT22;9750;48.730;10.294;2023-04-05T08:21:31;3.70;82.00
19232;DHT22;9750;48.730;10.294;2023-04-05T08:23:58;3.70;80.80
19232;DHT22;9750;48.730;10.294;2023-04-05T08:26:26;3.70;81.70
19232;DHT22;9750;48.730;10.294;2023-04-05T08:28:54;3.80;81.80
19232;DHT22;9750;48.730;10.294;2023-04-05T08:31:21;3.90;81.80
19232;DHT22;9750;48.730;10.294;2023-04-05T08:33:49;3.90;80.90
19232;DHT22;9750;48.730;10.294;2023-04-05T08:36:16;3.90;79.70
19232;DHT22;9750;48.730;10.294;2023-04-05T08:38:43;4.00;80.30
19232;DHT22;9750;48.730;10.294;2023-04-05T08:41:15;4.00;81.20
19232;DHT22;9750;48.730;10.294;2023-04-05T08:43:52;4.00;82.00
19232;DHT22;9750;48.730;10.294;2023-04-05T08:46:23;4.10;80.40
19232;DHT22;9750;48.730;10.294;2023-04-05T08:48:51;4.10;80.30
19232;DHT22;9750;48.730;10.294;2023-04-05T08:51:19;4.10;78.70
19232;DHT22;9750;48.730;10.294;2023-04-05T08:53:47;4.10;76.40
19232;DHT22;9750;48.730;10.294;2023-04-05T08:56:15;4.00;77.00
19232;DHT22;9750;48.730;10.294;2023-04-05T08:58:49;4.10;78.00
19232;DHT22;9750;48.730;10.294;2023-04-05T09:01:19;4.20;79.20
19232;DHT22;9750;48.730;10.294;2023-04-05T09:03:49;4.30;75.50
19232;DHT22;9750;48.730;10.294;2023-04-05T09:06:19;4.40;74.60
19232;DHT22;9750;48.730;10.294;2023-04-05T09:08:47;4.50;73.30
19232;DHT22;9750;48.730;10.294;2023-04-05T09:11:16;4.50;73.10
19232;DHT22;9750;48.730;10.294;2023-04-05T09:13:43;4.40;75.50
19232;DHT22;9750;48.730;10.294;2023-04-05T09:16:11;4.50;74.70
19232;DHT22;9750;48.730;10.294;2023-04-05T09:18:40;4.60;74.10
19232;DHT22;9750;48.730;10.294;2023-04-05T09:21:09;4.70;73.50
19232;DHT22;9750;48.730;10.294;2023-04-05T09:23:36;4.70;73.20
19232;DHT22;9750;48.730;10.294;2023-04-05T09:26:17;4.70;72.90
19232;DHT22;9750;48.730;10.294;2023-04-05T09:28:44;4.80;71.60
19232;DHT22;9750;48.730;10.294;2023-04-05T09:31:30;4.80;69.60
19232;DHT22;9750;48.730;10.294;2023-04-05T09:33:58;4.80;69.30
19232;DHT22;9750;48.730;10.294;2023-04-05T09:36:27;4.80;70.70
19232;DHT22;9750;48.730;10.294;2023-04-05T09:39:04;4.80;72.00
19232;DHT22;9750;48.730;10.294;2023-04-05T09:41:32;4.90;72.40
19232;DHT22;9750;48.730;10.294;2023-04-05T09:44:00;4.90;71.20
19232;DHT22;9750;48.730;10.294;2023-04-05T09:46:29;5.00;71.90
19232;DHT22;9750;48.730;10.294;2023-04-05T09:48:57;5.00;70.90
19232;DHT22;9750;48.730;10.294;2023-04-05T09:51:33;4.80;70.20
19232;DHT22;9750;48.730;10.294;2023-04-05T09:54:15;4.70;70.90
19232;DHT22;9750;48.730;10.294;2023-04-05T09:56:53;4.70;71.80
19232;DHT22;9750;48.730;10.294;2023-04-05T09:59:22;4.80;71.40
19232;DHT22;9750;48.730;10.294;2023-04-05T10:01:52;4.80;72.80
19232;DHT22;9750;48.730;10.294;2023-04-05T10:04:20;5.00;75.60
19232;DHT22;9750;48.730;10.294;2023-04-05T10:06:50;5.10;74.10
19232;DHT22;9750;48.730;10.294;2023-04-05T10:09:17;5.30;72.90
19232;DHT22;9750;48.730;10.294;2023-04-05T10:11:45;5.40;72.00
19232;DHT22;9750;48.730;10.294;2023-04-05T10:14:13;5.50;72.80
19232;DHT22;9750;48.730;10.294;2023-04-05T10:16:47;5.50;69.10
19232;DHT22;9750;48.730;10.294;2023-04-05T10:19:25;5.50;70.90
19232;DHT22;9750;48.730;10.294;2023-04-05T10:21:58;5.50;70.60
19232;DHT22;9750;48.730;10.294;2023-04-05T10:24:33;5.50;69.70
19232;DHT22;9750;48.730;10.294;2023-04-05T10:27:04;5.50;73.20
19232;DHT22;9750;48.730;10.294;2023-04-05T10:29:37;5.60;71.00
19232;DHT22;9750;48.730;10.294;2023-04-05T10:32:12;5.60;73.60
19232;DHT22;9750;48.730;10.294;2023-04-05T10:34:47;5.80;74.00
19232;DHT22;9750;48.730;10.294;2023-04-05T10:37:26;5.90;71.60
19232;DHT22;9750;48.730;10.294;2023-04-05T10:39:59;5.90;71.30
19232;DHT22;9750;48.730;10.294;2023-04-05T10:42:36;5.90;69.20
19232;DHT22;9750;48.730;10.294;2023-04-05T10:45:07;5.90;69.40
19232;DHT22;9750;48.730;10.294;2023-04-05T10:50:59;5.90;67.90
19232;DHT22;9750;48.730;10.294;2023-04-05T10:53:29;6.00;67.90
19232;DHT22;9750;48.730;10.294;2023-04-05T10:55:58;6.10;68.20
19232;DHT22;9750;48.730;10.294;2023-04-05T10:58:28;6.10;69.10
19232;DHT22;9750;48.730;10.294;2023-04-05T11:00:56;6.20;70.30
19232;DHT22;9750;48.730;10.294;2023-04-05T11:03:48;6.30;70.60
19232;DHT22;9750;48.730;10.294;2023-04-05T11:06:21;6.40;73.70
19232;DHT22;9750;48.730;10.294;2023-04-05T11:08:52;6.50;72.50
19232;DHT22;9750;48.730;10.294;2023-04-05T11:11:21;6.50;69.20
19232;DHT22;9750;48.730;10.294;2023-04-05T11:13:50;6.50;68.00
19232;DHT22;9750;48.730;10.294;2023-04-05T11:16:18;6.60;67.00
19232;DHT22;9750;48.730;10.294;2023-04-05T11:18:45;6.60;67.60
19232;DHT22;9750;48.730;10.294;2023-04-05T11:21:21;6.60;67.00
19232;DHT22;9750;48.730;10.294;2023-04-05T11:24:09;6.60;68.10
19232;DHT22;9750;48.730;10.294;2023-04-05T11:26:53;6.70;69.60
19232;DHT22;9750;48.730;10.294;2023-04-05T11:29:45;6.70;67.80
19232;DHT22;9750;48.730;10.294;2023-04-05T11:32:13;6.70;67.00
19232;DHT22;9750;48.730;10.294;2023-04-05T11:34:41;6.60;66.70
19232;DHT22;9750;48.730;10.294;2023-04-05T11:37:09;6.60;66.60
19232;DHT22;9750;48.730;10.294;2023-04-05T11:39:38;6.70;66.30
19232;DHT22;9750;48.730;10.294;2023-04-05T11:42:09;6.70;67.90
19232;DHT22;9750;48.730;10.294;2023-04-05T11:44:43;6.70;66.70
19232;DHT22;9750;48.730;10.294;2023-04-05T11:47:11;6.70;68.40
19232;DHT22;9750;48.730;10.294;2023-04-05T11:49:39;6.80;70.20
19232;DHT22;9750;48.730;10.294;2023-04-05T11:52:10;6.90;70.40
19232;DHT22;9750;48.730;10.294;2023-04-05T11:54:39;6.90;65.50
19232;DHT22;9750;48.730;10.294;2023-04-05T11:57:17;6.80;66.60
19232;DHT22;9750;48.730;10.294;2023-04-05T11:59:44;6.90;71.20
19232;DHT22;9750;48.730;10.294;2023-04-05T12:02:12;7.00;68.50
19232;DHT22;9750;48.730;10.294;2023-04-05T12:04:39;7.10;69.80
19232;DHT22;9750;48.730;10.294;2023-04-05T12:07:14;7.20;68.70
19232;DHT22;9750;48.730;10.294;2023-04-05T12:10:06;7.30;67.80
19232;DHT22;9750;48.730;10.294;2023-04-05T12:12:39;7.30;69.00
19232;DHT22;9750;48.730;10.294;2023-04-05T12:15:17;7.50;68.70
19232;DHT22;9750;48.730;10.294;2023-04-05T12:21:08;7.60;69.40
19232;DHT22;9750;48.730;10.294;2023-04-05T12:23:36;7.70;66.70
19232;DHT22;9750;48.730;10.294;2023-04-05T12:26:06;7.60;64.20
19232;DHT22;9750;48.730;10.294;2023-04-05T12:28:51;7.60;66.10
19232;DHT22;9750;48.730;10.294;2023-04-05T12:31:37;7.60;66.10
19232;DHT22;9750;48.730;10.294;2023-04-05T12:34:10;7.70;65.30
19232;DHT22;9750;48.730;10.294;2023-04-05T12:36:43;7.70;70.20
19232;DHT22;9750;48.730;10.294;2023-04-05T12:39:16;7.70;64.30
19232;DHT22;9750;48.730;10.294;2023-04-05T12:42:00;7.70;66.90
19232;DHT22;9750;48.730;10.294;2023-04-05T12:44:42;7.80;64.20
19232;DHT22;9750;48.730;10.294;2023-04-05T12:47:18;7.70;64.40
19232;DHT22;9750;48.730;10.294;2023-04-05T12:49:55;7.70;64.80
19232;DHT22;9750;48.730;10.294;2023-04-05T12:55:57;7.80;64.50
19232;DHT22;9750;48.730;10.294;2023-04-05T12:58:33;7.80;64.00
19232;DHT22;9750;48.730;10.294;2023-04-05T13:01:01;7.80;64.70
19232;DHT22;9750;48.730;10.294;2023-04-05T13:03:28;7.80;63.60
19232;DHT22;9750;48.730;10.294;2023-04-05T13:05:56;7.80;64.70
19232;DHT22;9750;48.730;10.294;2023-04-05T13:11:45;7.90;63.40
19232;DHT22;9750;48.730;10.294;2023-04-05T13:14:14;7.90;63.50
19232;DHT22;9750;48.730;10.294;2023-04-05T13:16:42;7.90;63.00
19232;DHT22;9750;48.730;10.294;2023-04-05T13:19:09;7.90;64.20
19232;DHT22;9750;48.730;10.294;2023-04-05T13:21:37;8.00;67.50
19232;DHT22;9750;48.730;10.294;2023-04-05T13:24:04;8.20;68.50
19232;DHT22;9750;48.730;10.294;2023-04-05T13:26:31;8.30;66.10
19232;DHT22;9750;48.730;10.294;2023-04-05T13:28:58;8.20;62.50
19232;DHT22;9750;48.730;10.294;2023-04-05T13:31:28;8.20;63.10
19232;DHT22;9750;48.730;10.294;2023-04-05T13:33:55;8.20;63.70
19232;DHT22;9750;48.730;10.294;2023-04-05T13:36:22;8.20;65.10
19232;DHT22;9750;48.730;10.294;2023-04-05T13:38:49;8.30;63.40
19232;DHT22;9750;48.730;10.294;2023-04-05T13:41:16;8.40;64.70
19232;DHT22;9750;48.730;10.294;2023-04-05T13:43:44;8.40;62.50
19232;DHT22;9750;48.730;10.294;2023-04-05T13:46:11;8.40;61.20
19232;DHT22;9750;48.730;10.294;2023-04-05T13:48:40;8.40;61.90
19232;DHT22;9750;48.730;10.294;2023-04-05T13:51:07;8.40;62.30
19232;DHT22;9750;48.730;10.294;2023-04-05T13:53:50;8.40;61.60
19232;DHT22;9750;48.730;10.294;2023-04-05T13:56:17;8.40;63.90
19232;DHT22;9750;48.730;10.294;2023-04-05T13:58:44;8.50;67.50
19232;DHT22;9750;48.730;10.294;2023-04-05T14:01:12;8.70;68.50
19232;DHT22;9750;48.730;10.294;2023-04-05T14:03:39;8.80;64.90
19232;DHT22;9750;48.730;10.294;2023-04-05T14:06:10;8.90;66.50
19232;DHT22;9750;48.730;10.294;2023-04-05T14:08:37;9.00;66.30
19232;DHT22;9750;48.730;10.294;2023-04-05T14:11:07;9.10;66.50
19232;DHT22;9750;48.730;10.294;2023-04-05T14:13:34;9.10;64.90
19232;DHT22;9750;48.730;10.294;2023-04-05T14:16:02;9.10;63.30
19232;DHT22;9750;48.730;10.294;2023-04-05T14:18:29;9.20;63.70
19232;DHT22;9750;48.730;10.294;2023-04-05T14:20:56;9.30;65.00
19232;DHT22;9750;48.730;10.294;2023-04-05T14:23:24;9.30;62.40
19232;DHT22;9750;48.730;10.294;2023-04-05T14:25:52;9.40;62.10
19232;DHT22;9750;48.730;10.294;2023-04-05T14:28:21;9.50;61.50
19232;DHT22;9750;48.730;10.294;2023-04-05T14:30:58;9.60;64.10
19232;DHT22;9750;48.730;10.294;2023-04-05T14:33:31;9.60;61.90
19232;DHT22;9750;48.730;10.294;2023-04-05T14:35:58;9.60;61.40
19232;DHT22;9750;48.730;10.294;2023-04-05T14:38:26;9.50;60.50
19232;DHT22;9750;48.730;10.294;2023-04-05T14:40:56;9.50;60.10
19232;DHT22;9750;48.730;10.294;2023-04-05T14:43:25;9.50;62.30
19232;DHT22;9750;48.730;10.294;2023-04-05T14:45:57;9.50;60.30
19232;DHT22;9750;48.730;10.294;2023-04-05T14:48:25;9.60;62.50
19232;DHT22;9750;48.730;10.294;2023-04-05T14:50:59;9.70;62.00
19232;DHT22;9750;48.730;10.294;2023-04-05T14:53:31;9.80;62.60
19232;DHT22;9750;48.730;10.294;2023-04-05T14:56:05;9.90;59.20
19232;DHT22;9750;48.730;10.294;2023-04-05T14:58:40;9.70;59.20
19232;DHT22;9750;48.730;10.294;2023-04-05T15:01:10;9.70;60.60
19232;DHT22;9750;48.730;10.294;2023-04-05T15:03:37;9.90;62.50
19232;DHT22;9750;48.730;10.294;2023-04-05T15:06:08;10.00;61.50
19232;DHT22;9750;48.730;10.294;2023-04-05T15:08:41;10.00;60.10
19232;DHT22;9750;48.730;10.294;2023-04-05T15:11:13;10.10;61.50
19232;DHT22;9750;48.730;10.294;2023-04-05T15:13:50;10.00;58.90
19232;DHT22;9750;48.730;10.294;2023-04-05T15:16:23;10.10;59.10
19232;DHT22;9750;48.730;10.294;2023-04-05T15:19:25;10.30;59.30
19232;DHT22;9750;48.730;10.294;2023-04-05T15:25:59;10.60;60.40
19232;DHT22;9750;48.730;10.294;2023-04-05T15:28:38;10.60;59.10
19232;DHT22;9750;48.730;10.294;2023-04-05T15:31:09;10.60;60.90
19232;DHT22;9750;48.730;10.294;2023-04-05T15:33:37;10.60;60.90
19232;DHT22;9750;48.730;10.294;2023-04-05T15:36:06;10.60;60.70
19232;DHT22;9750;48.730;10.294;2023-04-05T15:38:33;10.60;60.40
19232;DHT22;9750;48.730;10.294;2023-04-05T15:41:01;10.60;60.00
19232;DHT22;9750;48.730;10.294;2023-04-05T15:43:29;10.70;58.80
19232;DHT22;9750;48.730;10.294;2023-04-05T15:45:57;10.80;60.20
19232;DHT22;9750;48.730;10.294;2023-04-05T15:48:27;10.90;59.90
19232;DHT22;9750;48.730;10.294;2023-04-05T15:50:55;10.90;59.80
19232;DHT22;9750;48.730;10.294;2023-04-05T15:53:22;11.00;59.90
19232;DHT22;9750;48.730;10.294;2023-04-05T15:55:50;11.00;59.70
19232;DHT22;9750;48.730;10.294;2023-04-05T15:58:19;11.00;60.80
19232;DHT22;9750;48.730;10.294;2023-04-05T16:01:01;10.90;59.60
19232;DHT22;9750;48.730;10.294;2023-04-05T16:03:33;10.80;60.90
19232;DHT22;9750;48.730;10.294;2023-04-05T16:06:00;10.70;61.30
19232;DHT22;9750;48.730;10.294;2023-04-05T16:08:27;10.70;60.40
19232;DHT22;9750;48.730;10.294;2023-04-05T16:10:55;10.60;60.00
19232;DHT22;9750;48.730;10.294;2023-04-05T16:13:22;10.50;59.30
19232;DHT22;9750;48.730;10.294;2023-04-05T16:15:50;10.40;59.10
19232;DHT22;9750;48.730;10.294;2023-04-05T16:18:20;10.30;58.50
19232;DHT22;9750;48.730;10.294;2023-04-05T16:20:50;10.20;59.50
19232;DHT22;9750;48.730;10.294;2023-04-05T16:23:23;10.20;61.10
19232;DHT22;9750;48.730;10.294;2023-04-05T16:25:59;10.30;60.30
19232;DHT22;9750;48.730;10.294;2023-04-05T16:28:42;10.30;61.70
19232;DHT22;9750;48.730;10.294;2023-04-05T16:31:16;10.30;60.00
19232;DHT22;9750;48.730;10.294;2023-04-05T16:33:43;10.30;60.70
19232;DHT22;9750;48.730;10.294;2023-04-05T16:36:15;10.20;59.60
19232;DHT22;9750;48.730;10.294;2023-04-05T16:38:43;10.20;59.40
19232;DHT22;9750;48.730;10.294;2023-04-05T16:41:12;10.10;59.70